sensor_id;sensor_type;location;lat;lon;timestamp;temperature;humidity
13482;DHT22;6813;60.352;15.746;2023-03-14T00:01:52;5.10;99.90
13482;DHT22;6813;60.352;15.746;2023-03-14T00:04:18;5.10;99.90
13482;DHT22;6813;60.352;15.746;2023-03-14T00:06:44;5.10;99.90
13482;DHT22;6813;60.352;15.746;2023-03-14T00:09:13;5.10;99.90
13482;DHT22;6813;60.352;15.746;2023-03-14T00:11:38;5.10;99.90
13482;DHT22;6813;60.352;15.746;2023-03-14T00:14:04;5.20;99.90
13482;DHT22;6813;60.352;15.746;2023-03-14T00:16:30;5.20;99.90
13482;DHT22;6813;60.352;15.746;2023-03-14T00:18:57;5.10;99.90
13482;DHT22;6813;60.352;15.746;2023-03-14T00:21:23;5.10;99.90
13482;DHT22;6813;60.352;15.746;2023-03-14T00:23:48;5.10;99.90
13482;DHT22;6813;60.352;15.746;2023-03-14T00:26:17;5.10;99.90
13482;DHT22;6813;60.352;15.746;2023-03-14T00:28:43;5.20;99.90
13482;DHT22;6813;60.352;15.746;2023-03-14T00:31:13;5.20;99.90
13482;DHT22;6813;60.352;15.746;2023-03-14T00:33:39;5.20;99.90
13482;DHT22;6813;60.352;15.746;2023-03-14T00:36:07;5.10;99.90
13482;DHT22;6813;60.352;15.746;2023-03-14T00:38:34;5.20;99.90
13482;DHT22;6813;60.352;15.746;2023-03-14T00:41:09;5.20;99.90
13482;DHT22;6813;60.352;15.746;2023-03-14T00:43:35;5.20;99.90
13482;DHT22;6813;60.352;15.746;2023-03-14T00:46:01;5.20;99.90
13482;DHT22;6813;60.352;15.746;2023-03-14T00:48:27;5.30;99.90
13482;DHT22;6813;60.352;15.746;2023-03-14T00:50:53;5.30;99.90
13482;DHT22;6813;60.352;15.746;2023-03-14T00:53:19;5.30;99.90
13482;DHT22;6813;60.352;15.746;2023-03-14T00:55:45;5.30;99.90
13482;DHT22;6813;60.352;15.746;2023-03-14T00:58:12;5.30;99.90
13482;DHT22;6813;60.352;15.746;2023-03-14T01:00:38;5.40;99.90
13482;DHT22;6813;60.352;15.746;2023-03-14T01:03:07;5.30;99.90
13482;DHT22;6813;60.352;15.746;2023-03-14T01:05:33;5.30;99.90
13482;DHT22;6813;60.352;15.746;2023-03-14T01:07:59;5.40;99.90
13482;DHT22;6813;60.352;15.746;2023-03-14T01:10:24;5.40;99.90
13482;DHT22;6813;60.352;15.746;2023-03-14T01:12:50;5.40;99.90
13482;DHT22;6813;60.352;15.746;2023-03-14T01:15:16;5.30;99.90
13482;DHT22;6813;60.352;15.746;2023-03-14T01:17:42;5.30;99.90
13482;DHT22;6813;60.352;15.746;2023-03-14T01:20:10;5.30;99.90
13482;DHT22;6813;60.352;15.746;2023-03-14T01:22:37;5.30;99.90
13482;DHT22;6813;60.352;15.746;2023-03-14T01:25:06;5.30;99.90
13482;DHT22;6813;60.352;15.746;2023-03-14T01:27:32;5.30;99.90
13482;DHT22;6813;60.352;15.746;2023-03-14T01:29:58;5.30;99.90
13482;DHT22;6813;60.352;15.746;2023-03-14T01:32:24;5.30;99.90
13482;DHT22;6813;60.352;15.746;2023-03-14T01:34:51;5.30;99.90
13482;DHT22;6813;60.352;15.746;2023-03-14T01:37:17;5.40;99.90
13482;DHT22;6813;60.352;15.746;2023-03-14T01:39:42;5.40;99.90
13482;DHT22;6813;60.352;15.746;2023-03-14T01:42:08;5.40;99.90
13482;DHT22;6813;60.352;15.746;2023-03-14T01:44:56;5.40;99.90
13482;DHT22;6813;60.352;15.746;2023-03-14T01:47:23;5.20;99.90
13482;DHT22;6813;60.352;15.746;2023-03-14T01:49:59;5.00;99.90
13482;DHT22;6813;60.352;15.746;2023-03-14T01:55:06;4.90;99.90
13482;DHT22;6813;60.352;15.746;2023-03-14T01:57:38;4.90;99.90
13482;DHT22;6813;60.352;15.746;2023-03-14T02:00:14;4.80;99.90
13482;DHT22;6813;60.352;15.746;2023-03-14T02:02:44;4.80;99.90
13482;DHT22;6813;60.352;15.746;2023-03-14T02:05:12;4.70;99.90
13482;DHT22;6813;60.352;15.746;2023-03-14T02:07:54;4.70;99.90
13482;DHT22;6813;60.352;15.746;2023-03-14T02:10:23;4.60;99.90
13482;DHT22;6813;60.352;15.746;2023-03-14T02:12:50;4.50;99.90
13482;DHT22;6813;60.352;15.746;2023-03-14T02:15:18;4.30;99.90
13482;DHT22;6813;60.352;15.746;2023-03-14T02:17:45;4.20;99.90
13482;DHT22;6813;60.352;15.746;2023-03-14T02:22:38;4.20;99.90
13482;DHT22;6813;60.352;15.746;2023-03-14T02:25:08;4.10;99.90
13482;DHT22;6813;60.352;15.746;2023-03-14T02:27:36;4.10;99.90
13482;DHT22;6813;60.352;15.746;2023-03-14T02:30:08;4.00;99.90
13482;DHT22;6813;60.352;15.746;2023-03-14T02:32:37;4.00;99.90
13482;DHT22;6813;60.352;15.746;2023-03-14T02:35:09;4.00;99.90
13482;DHT22;6813;60.352;15.746;2023-03-14T02:37:43;3.90;99.90
13482;DHT22;6813;60.352;15.746;2023-03-14T02:40:11;3.80;99.90
13482;DHT22;6813;60.352;15.746;2023-03-14T02:42:37;3.70;99.90
13482;DHT22;6813;60.352;15.746;2023-03-14T02:47:38;3.60;99.90
13482;DHT22;6813;60.352;15.746;2023-03-14T02:50:10;3.40;99.90
13482;DHT22;6813;60.352;15.746;2023-03-14T02:52:37;3.50;99.90
13482;DHT22;6813;60.352;15.746;2023-03-14T02:55:03;3.40;99.90
13482;DHT22;6813;60.352;15.746;2023-03-14T02:57:29;3.20;99.90
13482;DHT22;6813;60.352;15.746;2023-03-14T02:59:58;3.20;99.90
13482;DHT22;6813;60.352;15.746;2023-03-14T03:02:25;3.10;99.90
13482;DHT22;6813;60.352;15.746;2023-03-14T03:04:51;3.20;99.90
13482;DHT22;6813;60.352;15.746;2023-03-14T03:07:16;3.10;99.90
13482;DHT22;6813;60.352;15.746;2023-03-14T03:09:42;3.20;99.90
13482;DHT22;6813;60.352;15.746;2023-03-14T03:12:08;3.20;99.90
13482;DHT22;6813;60.352;15.746;2023-03-14T03:14:33;3.20;99.90
13482;DHT22;6813;60.352;15.746;2023-03-14T03:16:59;3.20;99.90
13482;DHT22;6813;60.352;15.746;2023-03-14T03:19:25;3.30;99.90
13482;DHT22;6813;60.352;15.746;2023-03-14T03:21:50;3.30;99.90
13482;DHT22;6813;60.352;15.746;2023-03-14T03:24:16;3.20;99.90
13482;DHT22;6813;60.352;15.746;2023-03-14T03:26:42;3.10;99.90
13482;DHT22;6813;60.352;15.746;2023-03-14T03:29:07;3.00;99.90
13482;DHT22;6813;60.352;15.746;2023-03-14T03:31:33;3.00;99.90
13482;DHT22;6813;60.352;15.746;2023-03-14T03:34:02;3.00;99.90
13482;DHT22;6813;60.352;15.746;2023-03-14T03:36:27;3.10;99.90
13482;DHT22;6813;60.352;15.746;2023-03-14T03:38:53;3.10;99.90
13482;DHT22;6813;60.352;15.746;2023-03-14T03:41:19;3.10;99.90
13482;DHT22;6813;60.352;15.746;2023-03-14T03:43:44;3.10;99.90
13482;DHT22;6813;60.352;15.746;2023-03-14T03:46:10;3.10;99.90
13482;DHT22;6813;60.352;15.746;2023-03-14T03:48:36;3.20;99.90
13482;DHT22;6813;60.352;15.746;2023-03-14T03:51:02;3.10;99.90
13482;DHT22;6813;60.352;15.746;2023-03-14T03:53:27;3.10;99.90
13482;DHT22;6813;60.352;15.746;2023-03-14T03:55:53;3.20;99.90
13482;DHT22;6813;60.352;15.746;2023-03-14T03:58:19;3.10;99.90
13482;DHT22;6813;60.352;15.746;2023-03-14T04:00:45;3.10;99.90
13482;DHT22;6813;60.352;15.746;2023-03-14T04:03:11;3.10;99.90
13482;DHT22;6813;60.352;15.746;2023-03-14T04:05:36;3.10;99.90
13482;DHT22;6813;60.352;15.746;2023-03-14T04:08:02;3.20;99.90
13482;DHT22;6813;60.352;15.746;2023-03-14T04:10:29;3.10;99.90
13482;DHT22;6813;60.352;15.746;2023-03-14T04:12:55;3.20;99.90
13482;DHT22;6813;60.352;15.746;2023-03-14T04:15:20;3.20;99.90
13482;DHT22;6813;60.352;15.746;2023-03-14T04:17:46;3.10;99.90
13482;DHT22;6813;60.352;15.746;2023-03-14T04:20:12;3.10;99.90
13482;DHT22;6813;60.352;15.746;2023-03-14T04:22:39;3.00;99.90
13482;DHT22;6813;60.352;15.746;2023-03-14T04:25:05;3.00;99.90
13482;DHT22;6813;60.352;15.746;2023-03-14T04:27:31;3.00;99.90
13482;DHT22;6813;60.352;15.746;2023-03-14T04:29:57;3.10;99.90
13482;DHT22;6813;60.352;15.746;2023-03-14T04:32:23;3.10;99.90
13482;DHT22;6813;60.352;15.746;2023-03-14T04:34:49;3.20;99.90
13482;DHT22;6813;60.352;15.746;2023-03-14T04:37:14;3.10;99.90
13482;DHT22;6813;60.352;15.746;2023-03-14T04:39:40;2.90;99.90
13482;DHT22;6813;60.352;15.746;2023-03-14T04:42:06;2.90;99.90
13482;DHT22;6813;60.352;15.746;2023-03-14T04:44:32;2.80;99.90
13482;DHT22;6813;60.352;15.746;2023-03-14T04:46:57;2.80;99.90
13482;DHT22;6813;60.352;15.746;2023-03-14T04:49:23;2.80;99.90
13482;DHT22;6813;60.352;15.746;2023-03-14T04:51:49;2.70;99.90
13482;DHT22;6813;60.352;15.746;2023-03-14T04:54:17;2.50;99.90
13482;DHT22;6813;60.352;15.746;2023-03-14T04:56:42;2.40;99.90
13482;DHT22;6813;60.352;15.746;2023-03-14T04:59:08;2.30;99.90
13482;DHT22;6813;60.352;15.746;2023-03-14T05:01:34;2.30;99.90
13482;DHT22;6813;60.352;15.746;2023-03-14T05:04:00;2.30;99.90
13482;DHT22;6813;60.352;15.746;2023-03-14T05:06:26;2.40;99.90
13482;DHT22;6813;60.352;15.746;2023-03-14T05:08:51;2.40;99.90
13482;DHT22;6813;60.352;15.746;2023-03-14T05:11:17;2.30;99.90
13482;DHT22;6813;60.352;15.746;2023-03-14T05:13:44;2.40;99.90
13482;DHT22;6813;60.352;15.746;2023-03-14T05:16:11;2.40;99.90
13482;DHT22;6813;60.352;15.746;2023-03-14T05:18:36;2.30;99.90
13482;DHT22;6813;60.352;15.746;2023-03-14T05:21:03;2.30;99.90
13482;DHT22;6813;60.352;15.746;2023-03-14T05:23:29;2.20;99.90
13482;DHT22;6813;60.352;15.746;2023-03-14T05:26:16;2.30;99.90
13482;DHT22;6813;60.352;15.746;2023-03-14T05:28:42;2.20;99.90
13482;DHT22;6813;60.352;15.746;2023-03-14T05:31:08;2.20;99.90
13482;DHT22;6813;60.352;15.746;2023-03-14T05:33:34;2.20;99.90
13482;DHT22;6813;60.352;15.746;2023-03-14T05:36:00;2.20;99.90
13482;DHT22;6813;60.352;15.746;2023-03-14T05:38:26;2.20;99.90
13482;DHT22;6813;60.352;15.746;2023-03-14T05:40:51;2.10;99.90
13482;DHT22;6813;60.352;15.746;2023-03-14T05:43:17;2.10;99.90
13482;DHT22;6813;60.352;15.746;2023-03-14T05:45:43;2.10;99.90
13482;DHT22;6813;60.352;15.746;2023-03-14T05:48:09;2.10;99.90
13482;DHT22;6813;60.352;15.746;2023-03-14T05:50:34;2.10;99.90
13482;DHT22;6813;60.352;15.746;2023-03-14T05:53:00;2.20;99.90
13482;DHT22;6813;60.352;15.746;2023-03-14T05:55:26;2.30;99.90
13482;DHT22;6813;60.352;15.746;2023-03-14T05:57:53;2.30;99.90
13482;DHT22;6813;60.352;15.746;2023-03-14T06:00:19;2.30;99.90
13482;DHT22;6813;60.352;15.746;2023-03-14T06:02:45;2.40;99.90
13482;DHT22;6813;60.352;15.746;2023-03-14T06:05:11;2.60;99.90
13482;DHT22;6813;60.352;15.746;2023-03-14T06:07:37;2.70;99.90
13482;DHT22;6813;60.352;15.746;2023-03-14T06:10:04;2.60;99.90
13482;DHT22;6813;60.352;15.746;2023-03-14T06:12:29;2.60;99.90
13482;DHT22;6813;60.352;15.746;2023-03-14T06:14:55;2.50;99.90
13482;DHT22;6813;60.352;15.746;2023-03-14T06:17:21;2.50;99.90
13482;DHT22;6813;60.352;15.746;2023-03-14T06:19:47;2.50;99.90
13482;DHT22;6813;60.352;15.746;2023-03-14T06:22:12;2.60;99.90
13482;DHT22;6813;60.352;15.746;2023-03-14T06:24:39;2.60;99.90
13482;DHT22;6813;60.352;15.746;2023-03-14T06:27:04;2.50;99.90
13482;DHT22;6813;60.352;15.746;2023-03-14T06:29:30;2.40;99.90
13482;DHT22;6813;60.352;15.746;2023-03-14T06:31:56;2.40;99.90
13482;DHT22;6813;60.352;15.746;2023-03-14T06:34:22;2.30;99.90
13482;DHT22;6813;60.352;15.746;2023-03-14T06:36:48;2.50;99.90
13482;DHT22;6813;60.352;15.746;2023-03-14T06:39:13;3.00;99.90
13482;DHT22;6813;60.352;15.746;2023-03-14T06:41:39;3.60;99.90
13482;DHT22;6813;60.352;15.746;2023-03-14T06:44:05;3.90;99.90
13482;DHT22;6813;60.352;15.746;2023-03-14T06:46:31;4.10;99.90
13482;DHT22;6813;60.352;15.746;2023-03-14T06:48:56;4.20;99.90
13482;DHT22;6813;60.352;15.746;2023-03-14T06:51:22;4.00;99.90
13482;DHT22;6813;60.352;15.746;2023-03-14T06:53:48;3.70;99.90
13482;DHT22;6813;60.352;15.746;2023-03-14T06:56:14;3.40;99.90
13482;DHT22;6813;60.352;15.746;2023-03-14T06:58:39;3.30;99.90
13482;DHT22;6813;60.352;15.746;2023-03-14T07:01:05;3.20;99.90
13482;DHT22;6813;60.352;15.746;2023-03-14T07:03:31;3.30;99.90
13482;DHT22;6813;60.352;15.746;2023-03-14T07:05:57;3.50;99.90
13482;DHT22;6813;60.352;15.746;2023-03-14T07:08:23;3.70;99.90
13482;DHT22;6813;60.352;15.746;2023-03-14T07:10:48;4.20;99.90
13482;DHT22;6813;60.352;15.746;2023-03-14T07:13:14;4.60;99.90
13482;DHT22;6813;60.352;15.746;2023-03-14T07:15:40;5.00;99.90
13482;DHT22;6813;60.352;15.746;2023-03-14T07:18:06;5.30;99.90
13482;DHT22;6813;60.352;15.746;2023-03-14T07:20:31;5.60;99.90
13482;DHT22;6813;60.352;15.746;2023-03-14T07:22:57;5.80;99.90
13482;DHT22;6813;60.352;15.746;2023-03-14T07:25:25;5.90;99.90
13482;DHT22;6813;60.352;15.746;2023-03-14T07:27:51;6.40;99.90
13482;DHT22;6813;60.352;15.746;2023-03-14T07:30:17;6.90;99.90
13482;DHT22;6813;60.352;15.746;2023-03-14T07:32:43;6.80;99.90
13482;DHT22;6813;60.352;15.746;2023-03-14T07:35:09;6.60;99.90
13482;DHT22;6813;60.352;15.746;2023-03-14T07:37:34;6.50;99.90
13482;DHT22;6813;60.352;15.746;2023-03-14T07:40:00;6.70;99.90
13482;DHT22;6813;60.352;15.746;2023-03-14T07:42:26;7.10;99.90
13482;DHT22;6813;60.352;15.746;2023-03-14T07:44:52;7.20;99.90
13482;DHT22;6813;60.352;15.746;2023-03-14T07:47:17;7.20;99.90
13482;DHT22;6813;60.352;15.746;2023-03-14T07:49:43;6.90;99.90
13482;DHT22;6813;60.352;15.746;2023-03-14T07:52:09;6.90;99.90
13482;DHT22;6813;60.352;15.746;2023-03-14T07:54:35;6.80;99.90
13482;DHT22;6813;60.352;15.746;2023-03-14T07:57:01;7.00;99.90
13482;DHT22;6813;60.352;15.746;2023-03-14T07:59:27;7.50;99.90
13482;DHT22;6813;60.352;15.746;2023-03-14T08:01:53;7.70;99.90
13482;DHT22;6813;60.352;15.746;2023-03-14T08:04:19;7.60;99.90
13482;DHT22;6813;60.352;15.746;2023-03-14T08:06:44;7.40;99.90
13482;DHT22;6813;60.352;15.746;2023-03-14T08:09:10;7.20;99.90
13482;DHT22;6813;60.352;15.746;2023-03-14T08:11:36;7.00;99.90
13482;DHT22;6813;60.352;15.746;2023-03-14T08:14:02;7.00;99.90
13482;DHT22;6813;60.352;15.746;2023-03-14T08:16:27;7.00;99.90
13482;DHT22;6813;60.352;15.746;2023-03-14T08:18:53;7.20;99.90
13482;DHT22;6813;60.352;15.746;2023-03-14T08:21:19;7.50;99.90
13482;DHT22;6813;60.352;15.746;2023-03-14T08:23:45;7.70;99.90
13482;DHT22;6813;60.352;15.746;2023-03-14T08:26:10;7.90;99.90
13482;DHT22;6813;60.352;15.746;2023-03-14T08:28:36;8.00;99.90
13482;DHT22;6813;60.352;15.746;2023-03-14T08:31:02;8.10;99.90
13482;DHT22;6813;60.352;15.746;2023-03-14T08:33:28;8.10;99.90
13482;DHT22;6813;60.352;15.746;2023-03-14T08:35:56;8.20;99.90
13482;DHT22;6813;60.352;15.746;2023-03-14T08:38:23;8.10;99.90
13482;DHT22;6813;60.352;15.746;2023-03-14T08:40:49;8.00;98.80
13482;DHT22;6813;60.352;15.746;2023-03-14T08:43:15;8.10;99.60
13482;DHT22;6813;60.352;15.746;2023-03-14T08:45:41;8.10;99.40
13482;DHT22;6813;60.352;15.746;2023-03-14T08:48:06;8.30;99.30
13482;DHT22;6813;60.352;15.746;2023-03-14T08:50:33;8.60;99.70
13482;DHT22;6813;60.352;15.746;2023-03-14T08:52:58;8.90;98.30
13482;DHT22;6813;60.352;15.746;2023-03-14T08:55:26;9.00;97.30
13482;DHT22;6813;60.352;15.746;2023-03-14T08:57:55;9.00;96.90
13482;DHT22;6813;60.352;15.746;2023-03-14T09:00:21;8.90;97.20
13482;DHT22;6813;60.352;15.746;2023-03-14T09:02:47;9.00;97.40
13482;DHT22;6813;60.352;15.746;2023-03-14T09:05:13;9.10;96.80
13482;DHT22;6813;60.352;15.746;2023-03-14T09:07:40;9.30;96.10
13482;DHT22;6813;60.352;15.746;2023-03-14T09:10:07;9.40;94.20
13482;DHT22;6813;60.352;15.746;2023-03-14T09:12:33;9.50;94.20
13482;DHT22;6813;60.352;15.746;2023-03-14T09:14:59;9.70;95.00
13482;DHT22;6813;60.352;15.746;2023-03-14T09:17:25;9.70;94.30
13482;DHT22;6813;60.352;15.746;2023-03-14T09:19:51;9.70;93.70
13482;DHT22;6813;60.352;15.746;2023-03-14T09:22:16;9.80;93.70
13482;DHT22;6813;60.352;15.746;2023-03-14T09:24:42;9.80;92.50
13482;DHT22;6813;60.352;15.746;2023-03-14T09:27:08;9.80;93.70
13482;DHT22;6813;60.352;15.746;2023-03-14T09:29:34;9.70;92.50
13482;DHT22;6813;60.352;15.746;2023-03-14T09:32:00;9.20;92.00
13482;DHT22;6813;60.352;15.746;2023-03-14T09:34:26;8.80;93.00
13482;DHT22;6813;60.352;15.746;2023-03-14T09:36:52;8.70;93.90
13482;DHT22;6813;60.352;15.746;2023-03-14T09:39:18;8.60;93.30
13482;DHT22;6813;60.352;15.746;2023-03-14T09:41:48;8.60;93.60
13482;DHT22;6813;60.352;15.746;2023-03-14T09:44:25;8.40;94.00
13482;DHT22;6813;60.352;15.746;2023-03-14T09:46:54;8.40;93.10
13482;DHT22;6813;60.352;15.746;2023-03-14T09:49:39;8.60;93.60
13482;DHT22;6813;60.352;15.746;2023-03-14T09:52:16;8.80;93.00
13482;DHT22;6813;60.352;15.746;2023-03-14T09:54:47;9.00;92.90
13482;DHT22;6813;60.352;15.746;2023-03-14T09:57:18;9.20;92.30
13482;DHT22;6813;60.352;15.746;2023-03-14T09:59:46;9.30;92.60
13482;DHT22;6813;60.352;15.746;2023-03-14T10:02:24;9.30;93.10
13482;DHT22;6813;60.352;15.746;2023-03-14T10:04:52;9.30;92.80
13482;DHT22;6813;60.352;15.746;2023-03-14T10:07:28;9.60;92.20
13482;DHT22;6813;60.352;15.746;2023-03-14T10:09:55;9.70;91.20
13482;DHT22;6813;60.352;15.746;2023-03-14T10:12:31;9.70;91.80
13482;DHT22;6813;60.352;15.746;2023-03-14T10:15:05;9.60;91.60
13482;DHT22;6813;60.352;15.746;2023-03-14T10:17:39;9.70;91.60
13482;DHT22;6813;60.352;15.746;2023-03-14T10:20:05;9.70;89.00
13482;DHT22;6813;60.352;15.746;2023-03-14T10:22:31;9.50;90.10
13482;DHT22;6813;60.352;15.746;2023-03-14T10:25:02;9.20;90.20
13482;DHT22;6813;60.352;15.746;2023-03-14T10:27:30;8.90;91.20
13482;DHT22;6813;60.352;15.746;2023-03-14T10:29:59;8.70;92.10
13482;DHT22;6813;60.352;15.746;2023-03-14T10:32:45;8.60;91.40
13482;DHT22;6813;60.352;15.746;2023-03-14T10:38:00;8.60;91.70
13482;DHT22;6813;60.352;15.746;2023-03-14T10:40:37;8.60;91.60
13482;DHT22;6813;60.352;15.746;2023-03-14T10:43:05;8.80;91.60
13482;DHT22;6813;60.352;15.746;2023-03-14T10:45:38;8.70;91.20
13482;DHT22;6813;60.352;15.746;2023-03-14T10:48:30;8.80;92.50
13482;DHT22;6813;60.352;15.746;2023-03-14T10:53:49;8.70;91.20
13482;DHT22;6813;60.352;15.746;2023-03-14T10:56:18;8.60;91.30
13482;DHT22;6813;60.352;15.746;2023-03-14T10:58:46;8.60;91.10
13482;DHT22;6813;60.352;15.746;2023-03-14T11:01:36;8.50;90.70
13482;DHT22;6813;60.352;15.746;2023-03-14T11:09:56;8.50;90.70
13482;DHT22;6813;60.352;15.746;2023-03-14T11:12:41;8.50;90.30
13482;DHT22;6813;60.352;15.746;2023-03-14T11:15:34;8.30;90.10
13482;DHT22;6813;60.352;15.746;2023-03-14T11:20:46;8.20;90.80
13482;DHT22;6813;60.352;15.746;2023-03-14T11:23:20;8.20;90.30
13482;DHT22;6813;60.352;15.746;2023-03-14T11:28:40;8.00;91.20
13482;DHT22;6813;60.352;15.746;2023-03-14T11:31:29;7.90;91.20
13482;DHT22;6813;60.352;15.746;2023-03-14T11:36:51;8.10;90.60
13482;DHT22;6813;60.352;15.746;2023-03-14T11:39:19;8.20;90.40
13482;DHT22;6813;60.352;15.746;2023-03-14T11:41:47;8.20;90.80
13482;DHT22;6813;60.352;15.746;2023-03-14T11:47:08;8.30;90.90
13482;DHT22;6813;60.352;15.746;2023-03-14T11:49:47;8.40;90.70
13482;DHT22;6813;60.352;15.746;2023-03-14T11:54:48;7.90;91.30
13482;DHT22;6813;60.352;15.746;2023-03-14T11:57:17;7.50;91.10
13482;DHT22;6813;60.352;15.746;2023-03-14T12:10:17;7.20;92.00
13482;DHT22;6813;60.352;15.746;2023-03-14T12:12:43;7.30;91.10
13482;DHT22;6813;60.352;15.746;2023-03-14T12:15:20;7.20;91.20
13482;DHT22;6813;60.352;15.746;2023-03-14T12:17:47;7.10;91.50
13482;DHT22;6813;60.352;15.746;2023-03-14T12:20:20;7.00;92.10
13482;DHT22;6813;60.352;15.746;2023-03-14T12:22:49;6.80;92.00
13482;DHT22;6813;60.352;15.746;2023-03-14T12:25:24;6.40;92.90
13482;DHT22;6813;60.352;15.746;2023-03-14T12:30:37;6.00;94.30
13482;DHT22;6813;60.352;15.746;2023-03-14T12:35:41;5.90;94.90
13482;DHT22;6813;60.352;15.746;2023-03-14T12:43:50;6.00;93.70
13482;DHT22;6813;60.352;15.746;2023-03-14T12:46:22;6.00;94.40
13482;DHT22;6813;60.352;15.746;2023-03-14T12:51:45;5.60;94.30
13482;DHT22;6813;60.352;15.746;2023-03-14T12:54:36;5.50;95.00
13482;DHT22;6813;60.352;15.746;2023-03-14T12:59:58;5.60;96.00
13482;DHT22;6813;60.352;15.746;2023-03-14T13:02:26;5.70;95.20
13482;DHT22;6813;60.352;15.746;2023-03-14T13:05:09;5.80;94.80
13482;DHT22;6813;60.352;15.746;2023-03-14T13:13:08;5.90;95.10
13482;DHT22;6813;60.352;15.746;2023-03-14T13:15:57;5.70;95.20
13482;DHT22;6813;60.352;15.746;2023-03-14T13:18:48;5.50;95.80
13482;DHT22;6813;60.352;15.746;2023-03-14T13:21:18;5.40;96.00
13482;DHT22;6813;60.352;15.746;2023-03-14T13:24:05;5.40;96.30
13482;DHT22;6813;60.352;15.746;2023-03-14T13:26:41;5.40;96.30
13482;DHT22;6813;60.352;15.746;2023-03-14T13:29:26;5.50;96.10
13482;DHT22;6813;60.352;15.746;2023-03-14T13:32:00;5.70;95.80
13482;DHT22;6813;60.352;15.746;2023-03-14T13:34:29;5.80;95.80
13482;DHT22;6813;60.352;15.746;2023-03-14T13:36:55;5.80;95.50
13482;DHT22;6813;60.352;15.746;2023-03-14T13:39:22;5.90;95.80
13482;DHT22;6813;60.352;15.746;2023-03-14T13:41:55;5.70;95.40
13482;DHT22;6813;60.352;15.746;2023-03-14T13:46:59;5.50;95.50
13482;DHT22;6813;60.352;15.746;2023-03-14T13:49:25;5.40;96.30
13482;DHT22;6813;60.352;15.746;2023-03-14T13:51:52;5.40;96.70
13482;DHT22;6813;60.352;15.746;2023-03-14T13:54:22;5.40;97.00
13482;DHT22;6813;60.352;15.746;2023-03-14T13:56:48;5.40;96.80
13482;DHT22;6813;60.352;15.746;2023-03-14T13:59:25;5.50;97.00
13482;DHT22;6813;60.352;15.746;2023-03-14T14:01:52;5.60;96.80
13482;DHT22;6813;60.352;15.746;2023-03-14T14:04:21;5.60;96.60
13482;DHT22;6813;60.352;15.746;2023-03-14T14:06:59;5.70;96.50
13482;DHT22;6813;60.352;15.746;2023-03-14T14:09:26;5.60;96.10
13482;DHT22;6813;60.352;15.746;2023-03-14T14:11:59;5.60;96.40
13482;DHT22;6813;60.352;15.746;2023-03-14T14:16:59;5.60;96.40
13482;DHT22;6813;60.352;15.746;2023-03-14T14:19:28;5.50;96.30
13482;DHT22;6813;60.352;15.746;2023-03-14T14:21:54;5.30;96.90
13482;DHT22;6813;60.352;15.746;2023-03-14T14:24:22;5.20;96.70
13482;DHT22;6813;60.352;15.746;2023-03-14T14:26:54;5.20;97.00
13482;DHT22;6813;60.352;15.746;2023-03-14T14:29:31;5.20;97.10
13482;DHT22;6813;60.352;15.746;2023-03-14T14:32:15;5.10;97.10
13482;DHT22;6813;60.352;15.746;2023-03-14T14:34:46;5.00;97.40
13482;DHT22;6813;60.352;15.746;2023-03-14T14:37:19;5.00;98.20
13482;DHT22;6813;60.352;15.746;2023-03-14T14:39:46;4.90;97.20
13482;DHT22;6813;60.352;15.746;2023-03-14T14:42:16;4.90;98.00
13482;DHT22;6813;60.352;15.746;2023-03-14T14:44:43;4.90;97.80
13482;DHT22;6813;60.352;15.746;2023-03-14T14:47:14;4.80;97.90
13482;DHT22;6813;60.352;15.746;2023-03-14T14:49:40;4.80;98.20
13482;DHT22;6813;60.352;15.746;2023-03-14T14:52:17;4.80;98.10
13482;DHT22;6813;60.352;15.746;2023-03-14T14:54:59;4.70;98.50
13482;DHT22;6813;60.352;15.746;2023-03-14T14:57:28;4.80;98.80
13482;DHT22;6813;60.352;15.746;2023-03-14T15:03:14;5.00;98.70
13482;DHT22;6813;60.352;15.746;2023-03-14T15:05:41;4.90;98.40
13482;DHT22;6813;60.352;15.746;2023-03-14T15:08:10;5.00;98.50
13482;DHT22;6813;60.352;15.746;2023-03-14T15:10:36;4.90;98.10
13482;DHT22;6813;60.352;15.746;2023-03-14T15:13:02;4.60;98.50
13482;DHT22;6813;60.352;15.746;2023-03-14T15:15:28;4.50;98.90
13482;DHT22;6813;60.352;15.746;2023-03-14T15:17:54;4.60;99.30
13482;DHT22;6813;60.352;15.746;2023-03-14T15:20:20;4.70;99.40
13482;DHT22;6813;60.352;15.746;2023-03-14T15:22:49;4.70;98.90
13482;DHT22;6813;60.352;15.746;2023-03-14T15:25:15;4.60;99.10
13482;DHT22;6813;60.352;15.746;2023-03-14T15:27:41;4.60;99.30
13482;DHT22;6813;60.352;15.746;2023-03-14T15:30:17;4.60;99.10
13482;DHT22;6813;60.352;15.746;2023-03-14T15:32:43;4.50;99.10
13482;DHT22;6813;60.352;15.746;2023-03-14T15:35:10;4.50;99.70
13482;DHT22;6813;60.352;15.746;2023-03-14T15:37:35;4.60;99.80
13482;DHT22;6813;60.352;15.746;2023-03-14T15:40:03;4.50;99.70
13482;DHT22;6813;60.352;15.746;2023-03-14T15:42:37;4.50;99.90
13482;DHT22;6813;60.352;15.746;2023-03-14T15:45:03;4.50;99.90
13482;DHT22;6813;60.352;15.746;2023-03-14T15:47:29;4.30;99.90
13482;DHT22;6813;60.352;15.746;2023-03-14T15:49:57;4.40;99.90
13482;DHT22;6813;60.352;15.746;2023-03-14T15:52:23;4.50;99.90
13482;DHT22;6813;60.352;15.746;2023-03-14T15:54:49;4.60;99.90
13482;DHT22;6813;60.352;15.746;2023-03-14T15:57:14;4.60;99.90
13482;DHT22;6813;60.352;15.746;2023-03-14T15:59:40;4.60;99.90
13482;DHT22;6813;60.352;15.746;2023-03-14T16:02:06;4.70;99.90
13482;DHT22;6813;60.352;15.746;2023-03-14T16:04:31;4.60;99.90
13482;DHT22;6813;60.352;15.746;2023-03-14T16:06:57;4.50;99.90
13482;DHT22;6813;60.352;15.746;2023-03-14T16:09:23;4.50;99.90
13482;DHT22;6813;60.352;15.746;2023-03-14T16:11:54;4.50;99.90
13482;DHT22;6813;60.352;15.746;2023-03-14T16:14:20;4.60;99.90
13482;DHT22;6813;60.352;15.746;2023-03-14T16:16:46;4.50;99.90
13482;DHT22;6813;60.352;15.746;2023-03-14T16:19:12;4.50;99.90
13482;DHT22;6813;60.352;15.746;2023-03-14T16:21:38;4.30;99.90
13482;DHT22;6813;60.352;15.746;2023-03-14T16:24:04;4.40;99.90
13482;DHT22;6813;60.352;15.746;2023-03-14T16:26:31;4.40;99.90
13482;DHT22;6813;60.352;15.746;2023-03-14T16:28:59;4.50;99.90
13482;DHT22;6813;60.352;15.746;2023-03-14T16:31:25;4.60;99.90
13482;DHT22;6813;60.352;15.746;2023-03-14T16:33:51;4.70;99.90
13482;DHT22;6813;60.352;15.746;2023-03-14T16:36:16;4.70;99.90
13482;DHT22;6813;60.352;15.746;2023-03-14T16:38:43;4.60;99.90
13482;DHT22;6813;60.352;15.746;2023-03-14T16:41:16;4.60;99.90
13482;DHT22;6813;60.352;15.746;2023-03-14T16:43:42;4.50;99.90
13482;DHT22;6813;60.352;15.746;2023-03-14T16:46:15;4.50;99.90
13482;DHT22;6813;60.352;15.746;2023-03-14T16:48:42;4.50;99.90
13482;DHT22;6813;60.352;15.746;2023-03-14T16:51:08;4.50;99.90
13482;DHT22;6813;60.352;15.746;2023-03-14T16:53:34;4.40;99.90
13482;DHT22;6813;60.352;15.746;2023-03-14T16:56:00;4.40;99.90
13482;DHT22;6813;60.352;15.746;2023-03-14T16:58:26;4.50;99.90
13482;DHT22;6813;60.352;15.746;2023-03-14T17:00:52;4.20;99.70
13482;DHT22;6813;60.352;15.746;2023-03-14T17:03:18;4.20;99.90
13482;DHT22;6813;60.352;15.746;2023-03-14T17:05:49;4.00;99.90